createdAt,value
2023-05-06T00:03:13.609Z,10.62
2023-05-06T00:14:08.671Z,10.43
2023-05-06T00:25:06.035Z,10.43
2023-05-06T00:35:53.836Z,10.43
2023-05-06T00:46:43.269Z,10.33
2023-05-06T00:57:31.063Z,10.33
2023-05-06T01:08:28.466Z,10.43
2023-05-06T01:19:23.652Z,10.62
2023-05-06T01:30:07.070Z,10.53
2023-05-06T01:40:43.477Z,10.53
2023-05-06T01:51:32.603Z,10.72
2023-05-06T02:02:20.082Z,11.02
2023-05-06T02:12:57.795Z,11.11
2023-05-06T02:23:54.299Z,11.31
2023-05-06T02:34:48.550Z,11.31
2023-05-06T02:45:39.498Z,11.11
2023-05-06T02:56:35.342Z,11.11
2023-05-06T03:07:27.758Z,10.92
2023-05-06T03:18:20.486Z,10.72
2023-05-06T03:29:12.494Z,10.62
2023-05-06T03:40:00.486Z,10.53
2023-05-06T03:50:55.099Z,10.33
2023-05-06T04:01:49.470Z,10.33
2023-05-06T04:12:46.244Z,10.33
2023-05-06T04:23:39.845Z,10.53
2023-05-06T04:34:32.965Z,10.82
2023-05-06T04:45:24.296Z,11.31
2023-05-06T04:56:19.475Z,11.70
2023-05-06T05:07:17.551Z,12.19
2023-05-06T05:18:14.786Z,12.68
2023-05-06T05:29:01.129Z,12.78
2023-05-06T05:39:46.825Z,12.78
2023-05-06T05:50:23.129Z,12.97
2023-05-06T06:01:17.516Z,13.66
2023-05-06T06:11:53.601Z,14.24
2023-05-06T06:22:50.673Z,14.34
2023-05-06T06:33:34.434Z,14.34
2023-05-06T06:44:25.550Z,14.73
2023-05-06T06:55:20.929Z,15.12
2023-05-06T07:06:18.292Z,15.51
2023-05-06T07:17:14.545Z,15.81
2023-05-06T07:28:11.582Z,16.20
2023-05-06T07:38:45.359Z,16.10
2023-05-06T07:49:19.690Z,16.39
2023-05-06T07:59:53.484Z,16.88
2023-05-06T08:10:47.131Z,17.37
2023-05-06T08:21:22.710Z,18.15
2023-05-06T08:32:16.658Z,19.03
2023-05-06T08:43:10.940Z,19.92
2023-05-06T08:53:58.957Z,20.31
2023-05-06T09:04:47.317Z,21.09
2023-05-06T09:15:39.291Z,21.28
2023-05-06T09:26:34.348Z,21.87
2023-05-06T09:37:27.852Z,22.16
2023-05-06T09:48:17.008Z,22.56
2023-05-06T09:59:01.680Z,23.34
2023-05-06T10:09:48.911Z,22.95
2023-05-06T10:20:21.854Z,23.14
2023-05-06T10:31:17.024Z,23.24
2023-05-06T10:42:09.258Z,23.83
2023-05-06T10:52:47.884Z,23.63
2023-05-06T11:03:41.213Z,24.22
2023-05-06T11:14:29.311Z,22.95
2023-05-06T11:25:16.686Z,22.85
2023-05-06T11:36:17.689Z,24.80
2023-05-06T11:47:09.477Z,23.63
2023-05-06T11:58:05.432Z,22.95
2023-05-06T12:08:58.916Z,22.46
2023-05-06T12:19:53.908Z,24.90
2023-05-06T12:30:49.804Z,26.37
2023-05-06T12:41:43.409Z,26.47
2023-05-06T12:52:33.376Z,30.28
2023-05-06T13:03:19.539Z,30.67
2023-05-06T13:14:11.679Z,25.59
2023-05-06T13:25:01.763Z,28.52
2023-05-06T13:35:50.219Z,33.21
2023-05-06T13:46:22.850Z,30.38
2023-05-06T13:56:54.759Z,27.25
2023-05-06T14:07:53.353Z,30.48
2023-05-06T14:18:47.174Z,30.08
2023-05-06T14:29:23.624Z,32.92
2023-05-06T14:40:20.215Z,27.64
2023-05-06T14:51:17.354Z,31.36
2023-05-06T15:02:14.901Z,29.11
2023-05-06T15:12:59.198Z,24.61
2023-05-06T15:23:51.599Z,24.12
2023-05-06T15:34:47.710Z,22.75
2023-05-06T15:45:39.850Z,21.48
2023-05-06T15:56:41.100Z,21.29
2023-05-06T16:07:37.063Z,20.80
2023-05-06T16:18:24.240Z,19.82
2023-05-06T16:29:12.190Z,19.33
2023-05-06T16:40:05.804Z,17.76
2023-05-06T16:50:57.645Z,16.69
2023-05-06T17:01:36.738Z,16.10
2023-05-06T17:12:25.023Z,15.61
2023-05-06T17:23:15.791Z,15.42
2023-05-06T17:34:07.649Z,15.42
2023-05-06T17:44:58.866Z,15.32
2023-05-06T17:55:47.213Z,15.22
2023-05-06T18:06:33.789Z,15.12
2023-05-06T18:17:07.414Z,15.02
2023-05-06T18:28:05.245Z,14.93
2023-05-06T18:38:54.293Z,15.03
2023-05-06T18:49:45.969Z,14.93
2023-05-06T19:00:41.196Z,14.73
2023-05-06T19:11:31.807Z,14.63
2023-05-06T19:22:25.088Z,14.63
2023-05-06T19:33:16.998Z,14.73
2023-05-06T19:44:08.099Z,14.83
2023-05-06T19:54:58.799Z,14.63
2023-05-06T20:05:44.056Z,14.63
2023-05-06T20:16:32.114Z,14.34
2023-05-06T20:27:27.172Z,14.14
2023-05-06T20:38:13.084Z,13.95
2023-05-06T20:49:03.827Z,13.85
2023-05-06T20:59:44.026Z,13.66
2023-05-06T21:10:30.535Z,13.56
2023-05-06T21:21:14.015Z,13.56
2023-05-06T21:31:49.865Z,13.46
2023-05-06T21:42:37.489Z,13.36
2023-05-06T21:53:35.163Z,13.36
2023-05-06T22:04:25.733Z,13.36
2023-05-06T22:15:11.015Z,13.36
2023-05-06T22:25:58.650Z,13.36
2023-05-06T22:36:50.529Z,13.36
2023-05-06T22:47:39.334Z,13.26
2023-05-06T22:58:28.363Z,13.36
2023-05-06T23:09:19.993Z,13.36
2023-05-06T23:20:17.283Z,13.36
2023-05-06T23:31:08.642Z,13.46
2023-05-06T23:41:58.952Z,13.46
2023-05-06T23:52:51.395Z,13.46
